sensor_id;sensor_type;location;lat;lon;timestamp;P1;durP1;ratioP1;P2;durP2;ratioP2
4051;SDS011;2040;50.924;11.604;2022-08-04T00:01:20;5.20;;;2.87;;
4051;SDS011;2040;50.924;11.604;2022-08-04T00:03:58;4.70;;;2.90;;
4051;SDS011;2040;50.924;11.604;2022-08-04T00:09:03;3.27;;;2.97;;
4051;SDS011;2040;50.924;11.604;2022-08-04T00:11:34;3.13;;;2.83;;
4051;SDS011;2040;50.924;11.604;2022-08-04T00:14:02;3.57;;;2.70;;
4051;SDS011;2040;50.924;11.604;2022-08-04T00:16:32;7.40;;;3.40;;
4051;SDS011;2040;50.924;11.604;2022-08-04T00:19:44;6.43;;;3.00;;
4051;SDS011;2040;50.924;11.604;2022-08-04T00:22:05;2.90;;;2.70;;
4051;SDS011;2040;50.924;11.604;2022-08-04T00:24:34;3.07;;;2.70;;
4051;SDS011;2040;50.924;11.604;2022-08-04T00:27:00;4.93;;;3.17;;
4051;SDS011;2040;50.924;11.604;2022-08-04T00:29:27;7.03;;;2.53;;
4051;SDS011;2040;50.924;11.604;2022-08-04T00:31:53;3.93;;;2.60;;
4051;SDS011;2040;50.924;11.604;2022-08-04T00:34:20;5.23;;;3.37;;
4051;SDS011;2040;50.924;11.604;2022-08-04T00:36:47;4.13;;;3.40;;
4051;SDS011;2040;50.924;11.604;2022-08-04T00:39:14;5.00;;;3.80;;
4051;SDS011;2040;50.924;11.604;2022-08-04T00:58:15;4.50;;;3.20;;
4051;SDS011;2040;50.924;11.604;2022-08-04T01:00:47;3.80;;;3.00;;
4051;SDS011;2040;50.924;11.604;2022-08-04T01:03:23;9.20;;;3.00;;
4051;SDS011;2040;50.924;11.604;2022-08-04T01:09:03;3.27;;;2.27;;
4051;SDS011;2040;50.924;11.604;2022-08-04T01:17:53;4.47;;;2.67;;
4051;SDS011;2040;50.924;11.604;2022-08-04T01:29:19;3.73;;;2.80;;
4051;SDS011;2040;50.924;11.604;2022-08-04T01:32:00;7.73;;;3.27;;
4051;SDS011;2040;50.924;11.604;2022-08-04T01:34:29;3.30;;;2.83;;
4051;SDS011;2040;50.924;11.604;2022-08-04T01:40:05;5.30;;;2.83;;
4051;SDS011;2040;50.924;11.604;2022-08-04T01:42:33;5.80;;;2.53;;
4051;SDS011;2040;50.924;11.604;2022-08-04T01:45:07;3.33;;;2.70;;
4051;SDS011;2040;50.924;11.604;2022-08-04T01:47:36;4.07;;;2.83;;
4051;SDS011;2040;50.924;11.604;2022-08-04T01:50:06;5.03;;;3.63;;
4051;SDS011;2040;50.924;11.604;2022-08-04T01:52:35;6.10;;;3.23;;
4051;SDS011;2040;50.924;11.604;2022-08-04T01:55:03;6.90;;;3.40;;
4051;SDS011;2040;50.924;11.604;2022-08-04T01:57:31;4.40;;;3.43;;
4051;SDS011;2040;50.924;11.604;2022-08-04T01:59:59;3.77;;;2.73;;
4051;SDS011;2040;50.924;11.604;2022-08-04T02:02:25;3.67;;;3.27;;
4051;SDS011;2040;50.924;11.604;2022-08-04T02:04:50;6.07;;;4.10;;
4051;SDS011;2040;50.924;11.604;2022-08-04T02:10:28;7.23;;;4.87;;
4051;SDS011;2040;50.924;11.604;2022-08-04T02:15:46;4.20;;;2.97;;
4051;SDS011;2040;50.924;11.604;2022-08-04T02:18:24;3.43;;;3.00;;
4051;SDS011;2040;50.924;11.604;2022-08-04T02:20:56;4.60;;;3.30;;
4051;SDS011;2040;50.924;11.604;2022-08-04T02:23:28;5.50;;;3.23;;
4051;SDS011;2040;50.924;11.604;2022-08-04T02:26:11;3.47;;;3.13;;
4051;SDS011;2040;50.924;11.604;2022-08-04T02:28:46;4.83;;;3.30;;
4051;SDS011;2040;50.924;11.604;2022-08-04T02:31:13;4.40;;;3.43;;
4051;SDS011;2040;50.924;11.604;2022-08-04T02:37:03;4.70;;;3.33;;
4051;SDS011;2040;50.924;11.604;2022-08-04T02:39:32;4.03;;;3.63;;
4051;SDS011;2040;50.924;11.604;2022-08-04T02:41:59;4.80;;;3.70;;
4051;SDS011;2040;50.924;11.604;2022-08-04T02:44:27;4.40;;;3.90;;
4051;SDS011;2040;50.924;11.604;2022-08-04T02:46:54;4.50;;;4.10;;
4051;SDS011;2040;50.924;11.604;2022-08-04T02:49:21;6.60;;;3.90;;
4051;SDS011;2040;50.924;11.604;2022-08-04T02:51:51;5.50;;;3.97;;
4051;SDS011;2040;50.924;11.604;2022-08-04T02:54:38;7.70;;;4.00;;
4051;SDS011;2040;50.924;11.604;2022-08-04T02:57:09;4.53;;;3.90;;
4051;SDS011;2040;50.924;11.604;2022-08-04T02:59:47;4.60;;;3.97;;
4051;SDS011;2040;50.924;11.604;2022-08-04T03:05:11;4.50;;;4.10;;
4051;SDS011;2040;50.924;11.604;2022-08-04T03:14:40;4.20;;;3.80;;
4051;SDS011;2040;50.924;11.604;2022-08-04T03:21:56;5.83;;;4.40;;
4051;SDS011;2040;50.924;11.604;2022-08-04T03:27:57;7.40;;;4.20;;
4051;SDS011;2040;50.924;11.604;2022-08-04T03:33:40;6.60;;;4.80;;
4051;SDS011;2040;50.924;11.604;2022-08-04T03:36:32;5.27;;;4.33;;
4051;SDS011;2040;50.924;11.604;2022-08-04T03:43:18;8.23;;;4.13;;
4051;SDS011;2040;50.924;11.604;2022-08-04T03:47:49;4.40;;;4.00;;
4051;SDS011;2040;50.924;11.604;2022-08-04T03:50:45;7.17;;;4.57;;
4051;SDS011;2040;50.924;11.604;2022-08-04T03:57:10;4.37;;;3.60;;
4051;SDS011;2040;50.924;11.604;2022-08-04T04:05:20;6.57;;;4.10;;
4051;SDS011;2040;50.924;11.604;2022-08-04T04:11:22;6.00;;;3.80;;
4051;SDS011;2040;50.924;11.604;2022-08-04T04:25:35;6.70;;;4.20;;
4051;SDS011;2040;50.924;11.604;2022-08-04T04:31:25;5.60;;;4.60;;
4051;SDS011;2040;50.924;11.604;2022-08-04T04:34:07;5.10;;;4.17;;
4051;SDS011;2040;50.924;11.604;2022-08-04T04:39:19;7.87;;;5.03;;
4051;SDS011;2040;50.924;11.604;2022-08-04T04:45:19;5.40;;;4.20;;
4051;SDS011;2040;50.924;11.604;2022-08-04T04:48:07;7.07;;;4.73;;
4051;SDS011;2040;50.924;11.604;2022-08-04T04:50:43;9.20;;;4.17;;
4051;SDS011;2040;50.924;11.604;2022-08-04T04:57:21;6.20;;;4.70;;
4051;SDS011;2040;50.924;11.604;2022-08-04T04:59:19;9.90;;;5.00;;
4051;SDS011;2040;50.924;11.604;2022-08-04T05:15:20;5.33;;;4.07;;
4051;SDS011;2040;50.924;11.604;2022-08-04T05:17:52;7.60;;;4.50;;
4051;SDS011;2040;50.924;11.604;2022-08-04T05:20:22;10.40;;;5.00;;
4051;SDS011;2040;50.924;11.604;2022-08-04T05:23:11;6.93;;;4.97;;
4051;SDS011;2040;50.924;11.604;2022-08-04T05:25:53;7.90;;;5.27;;
4051;SDS011;2040;50.924;11.604;2022-08-04T05:28:37;5.33;;;4.73;;
4051;SDS011;2040;50.924;11.604;2022-08-04T05:31:15;6.10;;;5.00;;
4051;SDS011;2040;50.924;11.604;2022-08-04T05:33:56;5.77;;;4.80;;
4051;SDS011;2040;50.924;11.604;2022-08-04T05:36:32;8.43;;;5.13;;
4051;SDS011;2040;50.924;11.604;2022-08-04T05:39:20;7.03;;;4.87;;
4051;SDS011;2040;50.924;11.604;2022-08-04T05:41:48;16.40;;;5.93;;
4051;SDS011;2040;50.924;11.604;2022-08-04T05:44:15;9.50;;;5.50;;
4051;SDS011;2040;50.924;11.604;2022-08-04T05:46:43;8.40;;;5.83;;
4051;SDS011;2040;50.924;11.604;2022-08-04T05:49:11;11.03;;;6.17;;
4051;SDS011;2040;50.924;11.604;2022-08-04T05:51:38;12.70;;;5.97;;
4051;SDS011;2040;50.924;11.604;2022-08-04T05:54:05;8.80;;;4.77;;
4051;SDS011;2040;50.924;11.604;2022-08-04T05:56:32;7.87;;;4.70;;
4051;SDS011;2040;50.924;11.604;2022-08-04T05:58:58;5.87;;;4.77;;
4051;SDS011;2040;50.924;11.604;2022-08-04T06:01:25;8.20;;;5.30;;
4051;SDS011;2040;50.924;11.604;2022-08-04T06:03:53;6.93;;;4.93;;
4051;SDS011;2040;50.924;11.604;2022-08-04T06:06:21;8.80;;;6.17;;
4051;SDS011;2040;50.924;11.604;2022-08-04T06:08:47;19.83;;;6.10;;
4051;SDS011;2040;50.924;11.604;2022-08-04T06:11:12;9.10;;;4.77;;
4051;SDS011;2040;50.924;11.604;2022-08-04T06:13:43;5.90;;;4.90;;
4051;SDS011;2040;50.924;11.604;2022-08-04T06:16:15;7.40;;;4.63;;
4051;SDS011;2040;50.924;11.604;2022-08-04T06:18:45;7.57;;;4.77;;
4051;SDS011;2040;50.924;11.604;2022-08-04T06:21:15;5.77;;;4.60;;
4051;SDS011;2040;50.924;11.604;2022-08-04T06:23:45;6.57;;;4.87;;
4051;SDS011;2040;50.924;11.604;2022-08-04T06:26:13;10.87;;;5.23;;
4051;SDS011;2040;50.924;11.604;2022-08-04T06:28:44;6.13;;;4.73;;
4051;SDS011;2040;50.924;11.604;2022-08-04T06:31:14;6.17;;;4.97;;
4051;SDS011;2040;50.924;11.604;2022-08-04T06:34:05;6.23;;;4.40;;
4051;SDS011;2040;50.924;11.604;2022-08-04T06:36:32;7.30;;;4.77;;
4051;SDS011;2040;50.924;11.604;2022-08-04T06:39:02;6.93;;;5.00;;
4051;SDS011;2040;50.924;11.604;2022-08-04T06:41:29;34.73;;;5.73;;
4051;SDS011;2040;50.924;11.604;2022-08-04T06:43:59;6.57;;;5.47;;
4051;SDS011;2040;50.924;11.604;2022-08-04T06:46:28;10.03;;;4.57;;
4051;SDS011;2040;50.924;11.604;2022-08-04T06:48:55;11.97;;;5.00;;
4051;SDS011;2040;50.924;11.604;2022-08-04T06:51:22;15.13;;;6.20;;
4051;SDS011;2040;50.924;11.604;2022-08-04T06:53:48;8.70;;;4.40;;
4051;SDS011;2040;50.924;11.604;2022-08-04T06:56:15;15.10;;;5.30;;
4051;SDS011;2040;50.924;11.604;2022-08-04T06:58:41;9.47;;;4.80;;
4051;SDS011;2040;50.924;11.604;2022-08-04T07:01:09;6.30;;;4.37;;
4051;SDS011;2040;50.924;11.604;2022-08-04T07:03:35;10.23;;;4.37;;
4051;SDS011;2040;50.924;11.604;2022-08-04T07:06:01;7.50;;;5.10;;
4051;SDS011;2040;50.924;11.604;2022-08-04T07:08:27;15.60;;;5.23;;
4051;SDS011;2040;50.924;11.604;2022-08-04T07:10:53;7.33;;;5.20;;
4051;SDS011;2040;50.924;11.604;2022-08-04T07:13:20;7.20;;;4.10;;
4051;SDS011;2040;50.924;11.604;2022-08-04T07:15:47;7.97;;;4.80;;
4051;SDS011;2040;50.924;11.604;2022-08-04T07:18:13;5.40;;;3.60;;
4051;SDS011;2040;50.924;11.604;2022-08-04T07:20:41;8.43;;;4.17;;
4051;SDS011;2040;50.924;11.604;2022-08-04T07:23:07;5.30;;;3.53;;
4051;SDS011;2040;50.924;11.604;2022-08-04T07:25:35;6.23;;;2.87;;
4051;SDS011;2040;50.924;11.604;2022-08-04T07:28:01;10.00;;;3.20;;
4051;SDS011;2040;50.924;11.604;2022-08-04T07:30:27;4.40;;;3.60;;
4051;SDS011;2040;50.924;11.604;2022-08-04T07:32:55;5.07;;;3.20;;
4051;SDS011;2040;50.924;11.604;2022-08-04T07:35:22;3.10;;;2.60;;
4051;SDS011;2040;50.924;11.604;2022-08-04T07:37:49;3.03;;;2.30;;
4051;SDS011;2040;50.924;11.604;2022-08-04T07:40:14;10.93;;;2.57;;
4051;SDS011;2040;50.924;11.604;2022-08-04T07:42:40;4.27;;;2.20;;
4051;SDS011;2040;50.924;11.604;2022-08-04T07:45:07;3.33;;;2.90;;
4051;SDS011;2040;50.924;11.604;2022-08-04T07:47:34;5.73;;;1.93;;
4051;SDS011;2040;50.924;11.604;2022-08-04T07:50:00;7.80;;;2.73;;
4051;SDS011;2040;50.924;11.604;2022-08-04T07:52:25;2.53;;;1.93;;
4051;SDS011;2040;50.924;11.604;2022-08-04T07:54:52;2.27;;;1.97;;
4051;SDS011;2040;50.924;11.604;2022-08-04T07:57:18;2.50;;;2.30;;
4051;SDS011;2040;50.924;11.604;2022-08-04T07:59:44;4.87;;;2.63;;
4051;SDS011;2040;50.924;11.604;2022-08-04T08:02:11;3.00;;;2.40;;
4051;SDS011;2040;50.924;11.604;2022-08-04T08:04:42;2.60;;;2.40;;
4051;SDS011;2040;50.924;11.604;2022-08-04T08:07:10;7.63;;;2.63;;
4051;SDS011;2040;50.924;11.604;2022-08-04T08:09:36;4.33;;;2.50;;
4051;SDS011;2040;50.924;11.604;2022-08-04T08:12:02;3.40;;;2.40;;
4051;SDS011;2040;50.924;11.604;2022-08-04T08:14:28;3.13;;;2.03;;
4051;SDS011;2040;50.924;11.604;2022-08-04T08:16:54;2.30;;;2.10;;
4051;SDS011;2040;50.924;11.604;2022-08-04T08:19:20;6.73;;;2.47;;
4051;SDS011;2040;50.924;11.604;2022-08-04T08:21:46;8.20;;;2.63;;
4051;SDS011;2040;50.924;11.604;2022-08-04T08:24:15;5.53;;;2.10;;
4051;SDS011;2040;50.924;11.604;2022-08-04T08:26:41;4.50;;;2.60;;
4051;SDS011;2040;50.924;11.604;2022-08-04T08:29:07;3.00;;;2.13;;
4051;SDS011;2040;50.924;11.604;2022-08-04T08:31:33;6.77;;;2.10;;
4051;SDS011;2040;50.924;11.604;2022-08-04T08:33:59;2.70;;;2.10;;
4051;SDS011;2040;50.924;11.604;2022-08-04T08:36:28;3.47;;;2.90;;
4051;SDS011;2040;50.924;11.604;2022-08-04T08:41:34;6.03;;;2.67;;
4051;SDS011;2040;50.924;11.604;2022-08-04T08:47:08;9.83;;;2.43;;
4051;SDS011;2040;50.924;11.604;2022-08-04T08:49:49;7.90;;;2.40;;
4051;SDS011;2040;50.924;11.604;2022-08-04T09:12:27;1.87;;;1.67;;
4051;SDS011;2040;50.924;11.604;2022-08-04T09:15:14;3.70;;;1.67;;
4051;SDS011;2040;50.924;11.604;2022-08-04T09:17:57;1.80;;;1.70;;
4051;SDS011;2040;50.924;11.604;2022-08-04T09:20:30;3.77;;;1.70;;
4051;SDS011;2040;50.924;11.604;2022-08-04T09:25:53;4.33;;;1.60;;
4051;SDS011;2040;50.924;11.604;2022-08-04T09:29:07;1.67;;;1.20;;
4051;SDS011;2040;50.924;11.604;2022-08-04T09:40:44;1.87;;;1.50;;
4051;SDS011;2040;50.924;11.604;2022-08-04T09:46:38;2.00;;;1.80;;
4051;SDS011;2040;50.924;11.604;2022-08-04T09:49:06;2.33;;;1.60;;
4051;SDS011;2040;50.924;11.604;2022-08-04T09:56:53;1.20;;;1.10;;
4051;SDS011;2040;50.924;11.604;2022-08-04T09:59:35;1.67;;;1.57;;
4051;SDS011;2040;50.924;11.604;2022-08-04T10:02:10;2.97;;;1.80;;
4051;SDS011;2040;50.924;11.604;2022-08-04T10:04:39;2.20;;;1.47;;
4051;SDS011;2040;50.924;11.604;2022-08-04T10:07:15;1.90;;;1.30;;
4051;SDS011;2040;50.924;11.604;2022-08-04T10:15:39;2.20;;;1.33;;
4051;SDS011;2040;50.924;11.604;2022-08-04T10:18:27;1.40;;;1.30;;
4051;SDS011;2040;50.924;11.604;2022-08-04T10:21:10;2.00;;;1.80;;
4051;SDS011;2040;50.924;11.604;2022-08-04T10:24:06;1.63;;;1.53;;
4051;SDS011;2040;50.924;11.604;2022-08-04T10:29:49;2.23;;;1.40;;
4051;SDS011;2040;50.924;11.604;2022-08-04T10:32:28;1.70;;;1.50;;
4051;SDS011;2040;50.924;11.604;2022-08-04T10:37:45;2.00;;;1.80;;
4051;SDS011;2040;50.924;11.604;2022-08-04T10:40:30;1.77;;;1.60;;
4051;SDS011;2040;50.924;11.604;2022-08-04T10:49:08;2.35;;;1.77;;
4051;SDS011;2040;50.924;11.604;2022-08-04T10:51:44;1.75;;;1.35;;
4051;SDS011;2040;50.924;11.604;2022-08-04T10:54:53;1.63;;;1.50;;
4051;SDS011;2040;50.924;11.604;2022-08-04T10:57:30;1.30;;;1.20;;
4051;SDS011;2040;50.924;11.604;2022-08-04T11:00:04;1.48;;;1.35;;
4051;SDS011;2040;50.924;11.604;2022-08-04T11:08:20;2.65;;;1.40;;
4051;SDS011;2040;50.924;11.604;2022-08-04T11:10:56;5.68;;;1.58;;
4051;SDS011;2040;50.924;11.604;2022-08-04T11:13:26;3.08;;;1.40;;
4051;SDS011;2040;50.924;11.604;2022-08-04T11:15:56;2.95;;;1.40;;
4051;SDS011;2040;50.924;11.604;2022-08-04T11:21:02;2.65;;;1.30;;
4051;SDS011;2040;50.924;11.604;2022-08-04T11:23:43;1.85;;;1.45;;
4051;SDS011;2040;50.924;11.604;2022-08-04T11:26:18;2.58;;;1.30;;
4051;SDS011;2040;50.924;11.604;2022-08-04T11:28:55;1.60;;;1.50;;
4051;SDS011;2040;50.924;11.604;2022-08-04T11:31:34;5.35;;;1.30;;
4051;SDS011;2040;50.924;11.604;2022-08-04T11:34:04;1.23;;;1.13;;
4051;SDS011;2040;50.924;11.604;2022-08-04T11:36:46;4.72;;;1.48;;
4051;SDS011;2040;50.924;11.604;2022-08-04T11:44:29;6.15;;;1.30;;
4051;SDS011;2040;50.924;11.604;2022-08-04T11:47:02;2.05;;;1.30;;
4051;SDS011;2040;50.924;11.604;2022-08-04T11:52:05;3.30;;;1.45;;
4051;SDS011;2040;50.924;11.604;2022-08-04T11:54:33;2.13;;;1.50;;
4051;SDS011;2040;50.924;11.604;2022-08-04T11:56:59;1.30;;;1.20;;
4051;SDS011;2040;50.924;11.604;2022-08-04T11:59:26;1.20;;;1.10;;
4051;SDS011;2040;50.924;11.604;2022-08-04T12:04:59;1.40;;;1.30;;
4051;SDS011;2040;50.924;11.604;2022-08-04T12:07:32;2.45;;;1.25;;
4051;SDS011;2040;50.924;11.604;2022-08-04T12:10:46;1.33;;;1.23;;
4051;SDS011;2040;50.924;11.604;2022-08-04T12:13:27;1.92;;;1.48;;
4051;SDS011;2040;50.924;11.604;2022-08-04T12:16:02;1.73;;;1.63;;
4051;SDS011;2040;50.924;11.604;2022-08-04T12:18:58;1.35;;;1.25;;
4051;SDS011;2040;50.924;11.604;2022-08-04T12:21:40;1.70;;;1.60;;
4051;SDS011;2040;50.924;11.604;2022-08-04T12:24:13;5.40;;;1.35;;
4051;SDS011;2040;50.924;11.604;2022-08-04T12:26:42;2.22;;;1.45;;
4051;SDS011;2040;50.924;11.604;2022-08-04T12:29:14;2.13;;;1.50;;
4051;SDS011;2040;50.924;11.604;2022-08-04T12:32:00;2.13;;;1.50;;
4051;SDS011;2040;50.924;11.604;2022-08-04T12:34:37;3.83;;;1.50;;
4051;SDS011;2040;50.924;11.604;2022-08-04T12:39:50;4.35;;;1.55;;
4051;SDS011;2040;50.924;11.604;2022-08-04T12:42:27;1.27;;;1.15;;
4051;SDS011;2040;50.924;11.604;2022-08-04T12:45:02;1.90;;;1.40;;
4051;SDS011;2040;50.924;11.604;2022-08-04T12:47:32;1.60;;;1.50;;
4051;SDS011;2040;50.924;11.604;2022-08-04T12:50:00;1.75;;;1.15;;
4051;SDS011;2040;50.924;11.604;2022-08-04T12:52:29;1.52;;;1.42;;
4051;SDS011;2040;50.924;11.604;2022-08-04T12:55:04;2.00;;;1.63;;
4051;SDS011;2040;50.924;11.604;2022-08-04T12:57:31;1.38;;;1.27;;
4051;SDS011;2040;50.924;11.604;2022-08-04T12:59:59;1.83;;;1.33;;
4051;SDS011;2040;50.924;11.604;2022-08-04T13:02:26;1.80;;;1.55;;
4051;SDS011;2040;50.924;11.604;2022-08-04T13:04:54;7.22;;;1.35;;
4051;SDS011;2040;50.924;11.604;2022-08-04T13:07:24;1.67;;;1.17;;
4051;SDS011;2040;50.924;11.604;2022-08-04T13:09:51;1.40;;;1.30;;
4051;SDS011;2040;50.924;11.604;2022-08-04T13:12:20;2.30;;;1.42;;
4051;SDS011;2040;50.924;11.604;2022-08-04T13:14:50;1.40;;;1.30;;
4051;SDS011;2040;50.924;11.604;2022-08-04T13:17:22;1.63;;;1.45;;
4051;SDS011;2040;50.924;11.604;2022-08-04T13:19:49;1.10;;;1.08;;
4051;SDS011;2040;50.924;11.604;2022-08-04T13:22:24;1.50;;;1.40;;
4051;SDS011;2040;50.924;11.604;2022-08-04T13:24:51;1.90;;;1.50;;
4051;SDS011;2040;50.924;11.604;2022-08-04T13:27:17;3.67;;;1.15;;
4051;SDS011;2040;50.924;11.604;2022-08-04T13:29:46;2.55;;;1.48;;
4051;SDS011;2040;50.924;11.604;2022-08-04T13:32:17;1.35;;;1.20;;
4051;SDS011;2040;50.924;11.604;2022-08-04T13:34:46;1.85;;;1.55;;
4051;SDS011;2040;50.924;11.604;2022-08-04T13:37:15;3.30;;;1.60;;
4051;SDS011;2040;50.924;11.604;2022-08-04T13:39:46;4.93;;;1.73;;
4051;SDS011;2040;50.924;11.604;2022-08-04T13:42:14;1.50;;;1.40;;
4051;SDS011;2040;50.924;11.604;2022-08-04T13:44:42;1.90;;;1.40;;
4051;SDS011;2040;50.924;11.604;2022-08-04T13:47:11;2.22;;;1.40;;
4051;SDS011;2040;50.924;11.604;2022-08-04T13:49:39;1.67;;;1.55;;
4051;SDS011;2040;50.924;11.604;2022-08-04T13:52:06;2.38;;;1.73;;
4051;SDS011;2040;50.924;11.604;2022-08-04T13:54:37;1.50;;;1.40;;
4051;SDS011;2040;50.924;11.604;2022-08-04T13:57:15;1.80;;;1.48;;
4051;SDS011;2040;50.924;11.604;2022-08-04T13:59:43;1.40;;;1.30;;
4051;SDS011;2040;50.924;11.604;2022-08-04T14:02:24;1.23;;;1.13;;
4051;SDS011;2040;50.924;11.604;2022-08-04T14:04:59;2.88;;;1.40;;
4051;SDS011;2040;50.924;11.604;2022-08-04T14:07:28;1.88;;;1.48;;
4051;SDS011;2040;50.924;11.604;2022-08-04T14:09:56;8.40;;;1.52;;
4051;SDS011;2040;50.924;11.604;2022-08-04T14:12:22;1.77;;;1.67;;
4051;SDS011;2040;50.924;11.604;2022-08-04T14:14:50;2.17;;;1.95;;
4051;SDS011;2040;50.924;11.604;2022-08-04T14:17:18;2.30;;;1.77;;
4051;SDS011;2040;50.924;11.604;2022-08-04T14:19:57;2.95;;;1.40;;
4051;SDS011;2040;50.924;11.604;2022-08-04T14:24:57;1.45;;;1.35;;
4051;SDS011;2040;50.924;11.604;2022-08-04T14:27:22;6.70;;;1.98;;
4051;SDS011;2040;50.924;11.604;2022-08-04T14:29:49;1.58;;;1.48;;
4051;SDS011;2040;50.924;11.604;2022-08-04T14:32:14;1.63;;;1.52;;
4051;SDS011;2040;50.924;11.604;2022-08-04T14:34:41;2.75;;;1.40;;
4051;SDS011;2040;50.924;11.604;2022-08-04T14:37:09;1.45;;;1.35;;
4051;SDS011;2040;50.924;11.604;2022-08-04T14:42:08;3.35;;;1.48;;
4051;SDS011;2040;50.924;11.604;2022-08-04T14:44:54;1.80;;;1.50;;
4051;SDS011;2040;50.924;11.604;2022-08-04T14:47:43;7.53;;;1.77;;
4051;SDS011;2040;50.924;11.604;2022-08-04T14:50:10;1.85;;;1.65;;
4051;SDS011;2040;50.924;11.604;2022-08-04T14:52:37;1.45;;;1.25;;
4051;SDS011;2040;50.924;11.604;2022-08-04T14:55:19;2.33;;;1.67;;
4051;SDS011;2040;50.924;11.604;2022-08-04T14:57:48;2.10;;;1.60;;
4051;SDS011;2040;50.924;11.604;2022-08-04T15:00:24;1.20;;;1.10;;
4051;SDS011;2040;50.924;11.604;2022-08-04T15:02:51;1.60;;;1.50;;
4051;SDS011;2040;50.924;11.604;2022-08-04T15:05:21;1.50;;;1.40;;
4051;SDS011;2040;50.924;11.604;2022-08-04T15:07:47;5.32;;;1.65;;
4051;SDS011;2040;50.924;11.604;2022-08-04T15:10:13;1.50;;;1.40;;
4051;SDS011;2040;50.924;11.604;2022-08-04T15:12:39;1.73;;;1.63;;
4051;SDS011;2040;50.924;11.604;2022-08-04T15:15:04;3.40;;;1.15;;
4051;SDS011;2040;50.924;11.604;2022-08-04T15:17:30;2.13;;;1.45;;
4051;SDS011;2040;50.924;11.604;2022-08-04T15:19:56;2.90;;;1.75;;
4051;SDS011;2040;50.924;11.604;2022-08-04T15:22:22;1.58;;;1.42;;
4051;SDS011;2040;50.924;11.604;2022-08-04T15:24:48;1.45;;;1.35;;
4051;SDS011;2040;50.924;11.604;2022-08-04T15:27:14;1.30;;;1.20;;
4051;SDS011;2040;50.924;11.604;2022-08-04T15:29:41;3.30;;;1.60;;
4051;SDS011;2040;50.924;11.604;2022-08-04T15:32:11;5.82;;;1.48;;
4051;SDS011;2040;50.924;11.604;2022-08-04T15:34:46;1.13;;;1.10;;
4051;SDS011;2040;50.924;11.604;2022-08-04T15:37:17;2.55;;;1.25;;
4051;SDS011;2040;50.924;11.604;2022-08-04T15:39:54;2.03;;;1.42;;
4051;SDS011;2040;50.924;11.604;2022-08-04T15:42:32;3.05;;;1.80;;
4051;SDS011;2040;50.924;11.604;2022-08-04T15:45:03;1.48;;;1.38;;
4051;SDS011;2040;50.924;11.604;2022-08-04T15:50:27;2.58;;;1.27;;
4051;SDS011;2040;50.924;11.604;2022-08-04T15:58:05;2.17;;;1.63;;
4051;SDS011;2040;50.924;11.604;2022-08-04T16:05:58;2.00;;;1.30;;
4051;SDS011;2040;50.924;11.604;2022-08-04T16:08:24;2.10;;;1.50;;
4051;SDS011;2040;50.924;11.604;2022-08-04T16:10:50;6.20;;;1.58;;
4051;SDS011;2040;50.924;11.604;2022-08-04T16:13:17;1.67;;;1.58;;
4051;SDS011;2040;50.924;11.604;2022-08-04T16:18:18;5.95;;;1.60;;
4051;SDS011;2040;50.924;11.604;2022-08-04T16:20:46;2.38;;;2.17;;
4051;SDS011;2040;50.924;11.604;2022-08-04T16:23:55;3.55;;;1.95;;
4051;SDS011;2040;50.924;11.604;2022-08-04T16:26:07;2.05;;;1.38;;
4051;SDS011;2040;50.924;11.604;2022-08-04T16:28:39;3.38;;;1.55;;
4051;SDS011;2040;50.924;11.604;2022-08-04T16:31:07;2.65;;;1.40;;
4051;SDS011;2040;50.924;11.604;2022-08-04T16:33:34;1.48;;;1.38;;
4051;SDS011;2040;50.924;11.604;2022-08-04T16:36:00;1.67;;;1.58;;
4051;SDS011;2040;50.924;11.604;2022-08-04T16:38:26;9.80;;;1.55;;
4051;SDS011;2040;50.924;11.604;2022-08-04T16:40:53;1.95;;;1.67;;
4051;SDS011;2040;50.924;11.604;2022-08-04T16:43:20;2.22;;;1.98;;
4051;SDS011;2040;50.924;11.604;2022-08-04T16:48:17;1.52;;;1.42;;
4051;SDS011;2040;50.924;11.604;2022-08-04T16:53:17;1.80;;;1.60;;
4051;SDS011;2040;50.924;11.604;2022-08-04T16:55:47;1.75;;;1.65;;
4051;SDS011;2040;50.924;11.604;2022-08-04T16:58:15;3.33;;;1.48;;
4051;SDS011;2040;50.924;11.604;2022-08-04T17:00:42;1.60;;;1.50;;
4051;SDS011;2040;50.924;11.604;2022-08-04T17:03:08;3.38;;;1.50;;
4051;SDS011;2040;50.924;11.604;2022-08-04T17:05:35;1.50;;;1.40;;
4051;SDS011;2040;50.924;11.604;2022-08-04T17:08:02;1.73;;;1.63;;
4051;SDS011;2040;50.924;11.604;2022-08-04T17:12:57;1.80;;;1.70;;
4051;SDS011;2040;50.924;11.604;2022-08-04T17:15:24;1.40;;;1.30;;
4051;SDS011;2040;50.924;11.604;2022-08-04T17:17:50;2.58;;;1.55;;
4051;SDS011;2040;50.924;11.604;2022-08-04T17:20:16;1.83;;;1.70;;
4051;SDS011;2040;50.924;11.604;2022-08-04T17:22:49;2.03;;;1.60;;
4051;SDS011;2040;50.924;11.604;2022-08-04T17:25:15;1.80;;;1.50;;
4051;SDS011;2040;50.924;11.604;2022-08-04T17:27:41;1.60;;;1.43;;
4051;SDS011;2040;50.924;11.604;2022-08-04T17:30:24;4.47;;;1.80;;
4051;SDS011;2040;50.924;11.604;2022-08-04T17:32:51;13.27;;;1.38;;
4051;SDS011;2040;50.924;11.604;2022-08-04T17:35:16;5.70;;;1.50;;
4051;SDS011;2040;50.924;11.604;2022-08-04T17:37:42;1.50;;;1.40;;
4051;SDS011;2040;50.924;11.604;2022-08-04T17:42:35;2.20;;;1.50;;
4051;SDS011;2040;50.924;11.604;2022-08-04T17:45:09;1.90;;;1.43;;
4051;SDS011;2040;50.924;11.604;2022-08-04T17:47:49;2.57;;;1.80;;
4051;SDS011;2040;50.924;11.604;2022-08-04T17:50:26;2.57;;;1.83;;
4051;SDS011;2040;50.924;11.604;2022-08-04T17:52:57;1.97;;;1.77;;
4051;SDS011;2040;50.924;11.604;2022-08-04T17:58:17;2.17;;;1.90;;
4051;SDS011;2040;50.924;11.604;2022-08-04T18:00:44;1.93;;;1.60;;
4051;SDS011;2040;50.924;11.604;2022-08-04T18:03:20;1.90;;;1.60;;
4051;SDS011;2040;50.924;11.604;2022-08-04T18:05:47;1.80;;;1.60;;
4051;SDS011;2040;50.924;11.604;2022-08-04T18:08:14;4.13;;;2.13;;
4051;SDS011;2040;50.924;11.604;2022-08-04T18:10:40;2.87;;;1.77;;
4051;SDS011;2040;50.924;11.604;2022-08-04T18:13:07;1.90;;;1.80;;
4051;SDS011;2040;50.924;11.604;2022-08-04T18:15:33;5.00;;;1.70;;
4051;SDS011;2040;50.924;11.604;2022-08-04T18:18:13;3.03;;;1.73;;
4051;SDS011;2040;50.924;11.604;2022-08-04T18:20:43;1.90;;;1.50;;
4051;SDS011;2040;50.924;11.604;2022-08-04T18:23:09;3.07;;;1.83;;
4051;SDS011;2040;50.924;11.604;2022-08-04T18:25:36;2.20;;;1.70;;
4051;SDS011;2040;50.924;11.604;2022-08-04T18:28:03;4.13;;;1.90;;
4051;SDS011;2040;50.924;11.604;2022-08-04T18:30:33;1.90;;;1.70;;
4051;SDS011;2040;50.924;11.604;2022-08-04T18:33:00;5.77;;;1.87;;
4051;SDS011;2040;50.924;11.604;2022-08-04T18:35:26;5.63;;;2.47;;
4051;SDS011;2040;50.924;11.604;2022-08-04T18:37:52;2.37;;;2.10;;
4051;SDS011;2040;50.924;11.604;2022-08-04T18:40:19;2.80;;;1.70;;
4051;SDS011;2040;50.924;11.604;2022-08-04T18:42:45;4.80;;;1.70;;
4051;SDS011;2040;50.924;11.604;2022-08-04T18:45:11;1.93;;;1.80;;
4051;SDS011;2040;50.924;11.604;2022-08-04T18:47:37;3.50;;;2.10;;
4051;SDS011;2040;50.924;11.604;2022-08-04T18:50:03;9.10;;;2.53;;
4051;SDS011;2040;50.924;11.604;2022-08-04T18:52:29;4.50;;;2.20;;
4051;SDS011;2040;50.924;11.604;2022-08-04T18:54:55;2.90;;;2.20;;
4051;SDS011;2040;50.924;11.604;2022-08-04T18:57:21;3.73;;;2.00;;
4051;SDS011;2040;50.924;11.604;2022-08-04T18:59:48;2.80;;;2.00;;
4051;SDS011;2040;50.924;11.604;2022-08-04T19:02:14;2.40;;;2.20;;
4051;SDS011;2040;50.924;11.604;2022-08-04T19:04:40;2.63;;;2.23;;
4051;SDS011;2040;50.924;11.604;2022-08-04T19:07:06;4.43;;;2.80;;
4051;SDS011;2040;50.924;11.604;2022-08-04T19:09:32;2.27;;;2.07;;
4051;SDS011;2040;50.924;11.604;2022-08-04T19:11:57;2.70;;;2.03;;
4051;SDS011;2040;50.924;11.604;2022-08-04T19:14:23;3.03;;;2.40;;
4051;SDS011;2040;50.924;11.604;2022-08-04T19:16:49;2.97;;;2.30;;
4051;SDS011;2040;50.924;11.604;2022-08-04T19:19:15;3.57;;;1.87;;
4051;SDS011;2040;50.924;11.604;2022-08-04T19:21:42;3.63;;;1.97;;
4051;SDS011;2040;50.924;11.604;2022-08-04T19:24:08;3.40;;;2.30;;
4051;SDS011;2040;50.924;11.604;2022-08-04T19:26:37;3.00;;;2.10;;
4051;SDS011;2040;50.924;11.604;2022-08-04T19:29:03;4.27;;;2.17;;
4051;SDS011;2040;50.924;11.604;2022-08-04T19:31:29;2.70;;;2.00;;